Time;durP1;ratioP1;P1;durP2;ratioP2;P2;SDS_P1;SDS_P2;PMS_P1;PMS_P2;Temp;Humidity;BMP_temperature;BMP_pressure;BME280_temperature;BME280_humidity;BME280_pressure;Samples;Min_cycle;Max_cycle;Signal;HPM_P1;HPM_P2
2022/09/08 00:00:50;;;;;;;13.53;10.70;;;21.80;72.80;;;24.36;54.09;100997.00;5053973;28;20252;-63
2022/09/08 00:03:22;;;;;;;12.77;11.67;;;21.70;72.90;;;24.32;54.46;100985.09;5053987;28;20218;-63
2022/09/08 00:05:57;;;;;;;12.03;11.10;;;21.70;73.30;;;24.32;54.79;100976.25;5053940;28;20181;-63
2022/09/08 00:08:24;;;;;;;13.00;11.83;;;21.70;73.70;;;24.33;54.59;100980.53;5053971;28;20521;-63
2022/09/08 00:10:57;;;;;;;12.80;11.70;;;21.60;73.50;;;24.29;55.06;100974.88;5053835;28;20216;-63
2022/09/08 00:13:39;;;;;;;12.50;11.50;;;21.60;73.60;;;24.27;54.81;100970.81;5053848;28;20217;-63
2022/09/08 00:16:09;;;;;;;12.70;11.70;;;21.60;73.70;;;24.27;54.72;100962.75;5054522;28;20597;-63
2022/09/08 00:18:39;;;;;;;13.00;12.00;;;21.60;73.90;;;24.31;54.87;100966.53;5053905;28;20193;-63
2022/09/08 00:21:08;;;;;;;13.23;12.03;;;21.60;74.00;;;24.32;54.81;100965.47;5054255;28;20178;-63
2022/09/08 00:23:35;;;;;;;13.40;12.30;;;21.60;73.90;;;24.31;54.61;100961.16;5054531;28;20317;-62
2022/09/08 00:26:04;;;;;;;12.57;11.47;;;21.60;73.40;;;24.28;54.52;100967.03;5054259;28;20251;-63
2022/09/08 00:28:31;;;;;;;12.37;11.27;;;21.60;73.40;;;24.22;54.82;100964.31;5053698;28;20190;-63
2022/09/08 00:30:59;;;;;;;13.80;12.63;;;21.60;73.60;;;24.18;54.57;100968.59;5053584;28;20218;-63
2022/09/08 00:33:29;;;;;;;13.47;12.37;;;21.50;73.50;;;24.12;54.71;100958.88;5053984;28;20213;-63
2022/09/08 00:35:56;;;;;;;12.07;11.13;;;21.50;73.30;;;24.04;54.84;100970.09;5053964;28;20197;-63
2022/09/08 00:38:25;;;;;;;14.17;12.97;;;21.40;73.20;;;23.96;54.69;100969.75;5053641;28;20217;-63
2022/09/08 00:40:52;;;;;;;13.13;12.13;;;21.30;73.40;;;23.89;54.90;100961.88;5053944;28;20210;-62
2022/09/08 00:43:35;;;;;;;13.20;12.00;;;21.20;73.60;;;23.80;55.29;100962.59;5053688;28;20245;-63
2022/09/08 00:46:21;;;;;;;13.23;12.13;;;21.20;74.20;;;23.74;55.35;100961.78;5053340;28;20174;-63
2022/09/08 00:48:54;;;;;;;14.07;12.80;;;21.10;74.30;;;23.75;55.58;100955.31;5053836;28;20616;-63
2022/09/08 00:51:25;;;;;;;13.20;12.10;;;21.10;74.90;;;23.75;55.67;100952.63;5053199;28;20205;-63
2022/09/08 00:53:57;;;;;;;12.43;11.53;;;21.10;74.90;;;23.74;55.71;100951.03;5069698;28;20189;-62
2022/09/08 00:56:28;;;;;;;13.77;12.50;;;21.10;74.80;;;23.71;55.45;100951.53;5073355;28;20183;-62
2022/09/08 00:59:00;;;;;;;14.10;12.10;;;21.10;74.80;;;23.69;55.65;100937.53;5073660;28;20246;-64
2022/09/08 01:01:27;;;;;;;12.07;11.07;;;21.00;74.70;;;23.66;55.98;100932.66;5072709;28;20224;-61
2022/09/08 01:03:55;;;;;;;11.53;10.63;;;21.00;74.90;;;23.66;55.75;100924.59;5073772;28;20190;-64
2022/09/08 01:12:43;;;;;;;13.97;12.67;;;21.00;74.90;;;23.55;55.77;100923.72;5073007;28;20248;-63
2022/09/08 01:15:18;;;;;;;12.70;11.60;;;21.00;74.80;;;23.52;55.82;100915.34;5070451;28;20244;-63
2022/09/08 01:17:47;;;;;;;12.87;11.50;;;20.90;74.80;;;23.49;55.90;100905.91;5053344;28;20189;-62
2022/09/08 01:20:17;;;;;;;13.80;12.60;;;20.90;75.10;;;23.47;55.98;100908.03;5053091;28;20626;-63
2022/09/08 01:23:13;;;;;;;13.80;12.63;;;20.90;75.30;;;23.39;56.22;100916.56;5052748;28;20232;-63
2022/09/08 01:26:15;;;;;;;12.23;11.13;;;20.80;75.40;;;23.36;56.61;100914.41;5053503;28;20712;-63
2022/09/08 01:28:50;;;;;;;12.03;11.13;;;20.80;75.90;;;23.41;56.73;100916.31;5054462;28;20186;-63
2022/09/08 01:31:19;;;;;;;12.50;11.40;;;20.80;75.80;;;23.46;56.32;100916.38;5052635;28;20605;-63
2022/09/08 01:33:47;;;;;;;12.30;11.20;;;20.80;75.70;;;23.46;56.47;100905.63;5052780;28;20214;-64
2022/09/08 01:36:16;;;;;;;13.23;12.03;;;20.80;75.70;;;23.47;56.30;100901.84;5053039;28;20558;-63
2022/09/08 01:38:44;;;;;;;12.67;11.57;;;20.80;75.80;;;23.48;56.28;100903.47;5052818;28;20186;-63
2022/09/08 01:41:13;;;;;;;12.47;11.37;;;20.80;75.80;;;23.47;55.99;100902.66;5054474;28;20585;-63
2022/09/08 01:43:41;;;;;;;12.20;11.20;;;20.80;75.60;;;23.45;56.13;100910.16;5056639;28;20260;-63
2022/09/08 01:46:10;;;;;;;12.57;11.57;;;20.80;76.50;;;23.44;56.36;100899.66;5056851;28;20225;-63
2022/09/08 01:48:37;;;;;;;12.47;11.57;;;20.80;75.70;;;23.42;56.25;100894.56;5056567;28;20190;-63
2022/09/08 01:51:07;;;;;;;12.23;11.23;;;20.80;75.80;;;23.43;56.22;100885.44;5056279;28;20532;-63
2022/09/08 01:53:35;;;;;;;12.27;11.07;;;20.80;75.70;;;23.43;56.15;100890.00;5056562;28;20205;-63
2022/09/08 01:56:05;;;;;;;11.47;10.47;;;20.70;75.60;;;23.43;56.49;100879.25;5056193;28;20221;-63
2022/09/08 01:58:33;;;;;;;12.87;11.83;;;20.80;75.70;;;23.43;56.08;100873.88;5056146;28;20263;-63
2022/09/08 02:01:01;;;;;;;12.00;11.00;;;20.70;75.60;;;23.41;56.22;100881.38;5056122;28;20226;-62
2022/09/08 02:03:30;;;;;;;13.87;12.67;;;20.70;75.70;;;23.39;56.22;100883.50;5056344;28;20209;-63
2022/09/08 02:06:01;;;;;;;12.80;11.80;;;20.70;75.70;;;23.38;56.09;100887.25;5071747;28;20607;-62
2022/09/08 02:08:29;;;;;;;13.80;12.60;;;20.70;75.90;;;23.36;56.29;100884.03;5056158;28;20180;-62
2022/09/08 02:10:59;;;;;;;14.13;12.83;;;20.70;76.10;;;23.37;56.57;100880.25;5055975;28;20224;-62
2022/09/08 02:13:29;;;;;;;12.80;11.50;;;20.70;76.20;;;23.38;56.52;100879.19;5055496;28;20234;-62
2022/09/08 02:16:03;;;;;;;12.90;11.73;;;20.70;76.20;;;23.38;56.39;100871.13;5055952;28;20273;-62
2022/09/08 02:18:32;;;;;;;13.37;12.37;;;20.70;76.20;;;23.38;56.49;100868.44;5062901;28;20276;-62
2022/09/08 02:21:07;;;;;;;13.70;12.60;;;20.70;76.00;;;23.35;56.00;100872.44;5075625;28;20246;-62
2022/09/08 02:23:36;;;;;;;12.53;11.57;;;20.60;75.80;;;23.32;56.52;100872.13;5076800;28;20208;-63
2022/09/08 02:26:04;;;;;;;13.80;12.13;;;20.60;76.00;;;23.31;56.57;100859.75;5075837;28;20200;-62
2022/09/08 02:28:31;;;;;;;12.57;11.57;;;20.60;75.90;;;23.30;56.53;100863.50;5075818;28;20268;-63
2022/09/08 02:31:01;;;;;;;13.50;12.40;;;20.60;76.10;;;23.30;56.35;100871.56;5059616;28;20225;-63
2022/09/08 02:33:31;;;;;;;13.30;12.10;;;20.60;76.10;;;23.29;56.53;100872.63;5055745;28;20228;-63
2022/09/08 02:35:59;;;;;;;14.57;13.27;;;20.60;76.40;;;23.28;56.40;100865.63;5055806;28;20659;-63
2022/09/08 02:38:26;;;;;;;17.63;15.93;;;20.60;76.30;;;23.28;56.66;100865.63;5055524;28;20647;-63
2022/09/08 02:40:55;;;;;;;15.33;13.93;;;20.60;76.40;;;23.29;56.56;100869.94;5055578;28;20190;-63
2022/09/08 02:43:22;;;;;;;14.93;13.63;;;20.60;76.40;;;23.26;56.50;100862.38;5055418;28;20210;-63
2022/09/08 02:45:50;;;;;;;14.57;13.37;;;20.60;76.20;;;23.23;56.52;100858.34;5065965;28;20250;-63
2022/09/08 02:48:17;;;;;;;14.23;13.03;;;20.50;76.10;;;23.21;56.69;100860.47;5075452;28;20189;-63
2022/09/08 02:50:46;;;;;;;14.80;13.40;;;20.50;76.30;;;23.19;56.67;100869.84;5075487;28;20584;-63
2022/09/08 02:53:14;;;;;;;12.63;11.57;;;20.50;76.20;;;23.16;56.77;100860.41;5075168;28;20264;-63
2022/09/08 02:55:42;;;;;;;13.70;12.63;;;20.50;76.60;;;23.14;56.81;100859.88;5075276;28;20239;-63
2022/09/08 02:58:11;;;;;;;13.30;12.20;;;20.40;76.50;;;23.13;56.91;100860.13;5075042;28;20216;-63
2022/09/08 03:00:39;;;;;;;13.73;12.43;;;20.40;76.60;;;23.09;57.09;100859.00;5074908;28;20662;-62
2022/09/08 03:03:06;;;;;;;13.37;12.27;;;20.40;76.60;;;23.06;56.88;100854.94;5075218;28;20205;-62
2022/09/08 03:05:34;;;;;;;13.40;12.30;;;20.40;76.80;;;23.03;57.29;100852.78;5075003;28;20190;-63
2022/09/08 03:08:05;;;;;;;13.37;12.17;;;20.40;77.00;;;22.99;57.27;100851.66;5069337;28;20198;-63
2022/09/08 03:10:33;;;;;;;13.30;12.20;;;20.30;76.90;;;22.99;57.22;100850.88;5054884;28;20258;-63
2022/09/08 03:13:01;;;;;;;13.33;12.13;;;20.30;77.00;;;22.97;57.24;100847.59;5055268;28;20221;-63
2022/09/08 03:15:31;;;;;;;11.17;10.17;;;20.30;77.10;;;22.95;57.21;100858.59;5054744;28;20236;-61
2022/09/08 03:17:59;;;;;;;14.17;12.83;;;20.20;77.10;;;22.92;57.75;100841.13;5054916;28;20689;-62
2022/09/08 03:20:26;;;;;;;12.57;11.47;;;20.20;77.30;;;22.92;57.44;100846.50;5070054;28;20190;-62
2022/09/08 03:22:53;;;;;;;11.57;10.57;;;20.20;77.40;;;22.94;57.37;100848.91;5054841;28;20210;-62
2022/09/08 03:25:22;;;;;;;13.07;11.97;;;20.20;77.50;;;22.96;57.43;100846.00;5055176;28;20190;-62
2022/09/08 03:27:50;;;;;;;12.40;11.33;;;20.30;77.40;;;22.96;57.25;100841.44;5054546;28;20614;-63
2022/09/08 03:30:19;;;;;;;13.03;11.73;;;20.20;77.30;;;22.95;56.97;100839.00;5070185;28;20217;-64
2022/09/08 03:32:48;;;;;;;11.87;10.77;;;20.20;77.10;;;22.95;57.11;100833.63;5054120;28;20268;-63
2022/09/08 03:35:17;;;;;;;11.80;10.70;;;20.20;77.30;;;22.96;57.22;100829.88;5054815;28;20190;-63
2022/09/08 03:37:45;;;;;;;12.30;10.63;;;20.20;77.50;;;22.98;57.37;100828.56;5054422;28;20194;-63
2022/09/08 03:40:16;;;;;;;13.07;11.87;;;20.20;77.50;;;23.02;56.96;100826.16;5054141;28;20225;-63
2022/09/08 03:42:45;;;;;;;12.03;10.93;;;20.30;77.30;;;23.03;57.12;100814.38;5054202;28;20217;-63
2022/09/08 03:45:15;;;;;;;11.40;10.50;;;20.30;77.10;;;23.05;56.91;100814.91;5053477;28;20217;-63
2022/09/08 03:47:44;;;;;;;12.00;11.03;;;20.30;76.90;;;23.07;56.77;100815.47;5054348;28;20580;-64
2022/09/08 03:50:14;;;;;;;12.93;11.83;;;20.40;77.70;;;23.09;56.58;100813.34;5053944;28;20522;-60
2022/09/08 03:52:42;;;;;;;12.20;11.00;;;20.40;76.50;;;23.09;56.66;100821.41;5053849;28;20218;-63
2022/09/08 03:55:11;;;;;;;11.37;10.47;;;20.40;76.50;;;23.07;56.46;100818.16;5053931;28;20221;-64
2022/09/08 03:57:39;;;;;;;12.43;11.23;;;20.40;76.20;;;23.04;56.32;100822.16;5054107;28;20698;-62
2022/09/08 04:00:11;;;;;;;11.90;10.80;;;20.30;76.00;;;22.99;56.43;100818.63;5053895;28;20693;-63
2022/09/08 04:02:39;;;;;;;13.23;11.83;;;20.30;76.00;;;22.96;56.41;100811.91;5054081;28;20639;-63
2022/09/08 04:05:08;;;;;;;12.40;11.30;;;20.30;76.30;;;22.94;56.60;100810.53;5054367;28;20209;-63
2022/09/08 04:07:36;;;;;;;12.57;11.57;;;20.20;76.30;;;22.92;56.78;100808.91;5054154;28;20202;-62
2022/09/08 04:10:07;;;;;;;12.03;10.93;;;20.20;77.40;;;22.92;56.54;100804.59;5053996;28;20662;-62
2022/09/08 04:12:43;;;;;;;12.00;10.87;;;20.20;76.60;;;22.89;57.11;100795.97;5053923;28;20296;-64
2022/09/08 04:15:12;;;;;;;12.20;11.20;;;20.20;76.60;;;22.89;56.89;100798.66;5053845;28;20201;-64
2022/09/08 04:17:40;;;;;;;11.93;10.93;;;20.20;76.80;;;22.88;56.73;100797.06;5053645;28;20204;-63
2022/09/08 04:20:09;;;;;;;12.57;11.57;;;20.20;76.60;;;22.86;56.81;100796.50;5053623;28;20232;-64
2022/09/08 04:22:36;;;;;;;13.27;12.07;;;20.20;76.80;;;22.87;56.90;100790.06;5053095;28;20218;-64
2022/09/08 04:25:05;;;;;;;13.03;11.93;;;20.20;76.90;;;22.87;56.94;100782.00;5053339;28;20182;-63
2022/09/08 04:27:32;;;;;;;12.57;11.47;;;20.20;76.80;;;22.86;57.04;100779.56;5053242;28;20186;-64
2022/09/08 04:29:59;;;;;;;11.33;10.37;;;20.20;77.00;;;22.87;57.03;100773.94;5053268;28;20254;-62
2022/09/08 04:32:28;;;;;;;12.80;11.80;;;20.20;77.20;;;22.91;57.02;100779.63;5052778;28;20217;-64
2022/09/08 04:34:56;;;;;;;12.57;11.57;;;20.20;77.00;;;22.92;56.83;100782.06;5053003;28;20228;-64
2022/09/08 04:37:23;;;;;;;13.97;12.83;;;20.20;76.80;;;22.95;56.98;100782.59;5052897;28;20186;-65
2022/09/08 04:39:50;;;;;;;12.93;11.73;;;20.20;76.60;;;22.93;56.69;100780.19;5052620;28;20190;-63
2022/09/08 04:42:18;;;;;;;12.63;11.63;;;20.20;76.60;;;22.92;56.71;100782.06;5052599;28;20552;-64
2022/09/08 04:44:46;;;;;;;13.50;12.40;;;20.20;76.60;;;22.92;56.51;100771.31;5068051;28;20194;-65
2022/09/08 04:47:14;;;;;;;13.53;12.13;;;20.20;76.80;;;22.95;56.72;100769.16;5052087;28;20201;-63
2022/09/08 04:49:42;;;;;;;12.83;11.73;;;20.20;76.80;;;22.94;56.89;100776.41;5053002;28;20198;-62
2022/09/08 04:52:10;;;;;;;13.50;12.27;;;20.20;76.80;;;22.95;56.69;100777.22;5052682;28;20293;-62
2022/09/08 04:54:38;;;;;;;13.50;12.30;;;20.20;76.80;;;22.95;56.62;100771.84;5052534;28;20623;-63
2022/09/08 04:57:05;;;;;;;12.60;11.50;;;20.20;77.00;;;22.97;57.08;100775.09;5068144;28;20468;-62
2022/09/08 04:59:33;;;;;;;14.30;13.00;;;20.20;77.00;;;23.00;56.68;100766.53;5052341;28;20198;-63
2022/09/08 05:02:00;;;;;;;14.20;13.00;;;20.30;77.00;;;23.02;56.64;100764.41;5052688;28;20217;-63
2022/09/08 05:04:27;;;;;;;11.57;10.60;;;20.30;76.70;;;23.02;56.82;100764.41;5052855;28;20686;-63
2022/09/08 05:06:56;;;;;;;13.63;12.33;;;20.30;76.90;;;23.05;56.65;100758.53;5052157;28;20619;-62
2022/09/08 05:09:23;;;;;;;13.70;12.50;;;20.30;76.80;;;23.07;56.54;100764.44;5052371;28;20239;-63
2022/09/08 05:11:51;;;;;;;14.03;12.83;;;20.30;76.70;;;23.10;56.54;100756.69;5052308;28;20287;-63
2022/09/08 05:14:18;;;;;;;15.57;14.17;;;20.40;76.70;;;23.13;56.45;100755.38;5052455;28;20205;-63
2022/09/08 05:16:45;;;;;;;15.03;13.50;;;20.40;76.60;;;23.14;56.26;100751.63;5056380;28;20189;-63
2022/09/08 05:19:13;;;;;;;13.30;12.20;;;20.40;76.50;;;23.12;56.57;100765.31;5064663;28;20213;-64
2022/09/08 05:21:40;;;;;;;18.23;13.73;;;20.40;76.40;;;23.11;56.19;100752.13;5056212;28;20201;-63
2022/09/08 05:24:09;;;;;;;16.17;14.60;;;20.40;76.20;;;23.08;56.22;100756.16;5072406;28;20584;-63
2022/09/08 05:26:36;;;;;;;14.67;13.40;;;20.40;76.10;;;23.04;56.19;100746.16;5056898;28;20198;-65
2022/09/08 05:29:04;;;;;;;15.40;13.57;;;20.40;76.10;;;23.01;56.55;100752.84;5056664;28;20239;-63
2022/09/08 05:31:32;;;;;;;15.60;14.23;;;20.30;76.40;;;23.02;56.92;100754.47;5056141;28;20225;-62
2022/09/08 05:34:01;;;;;;;14.97;13.53;;;20.30;76.50;;;23.02;56.44;100759.03;5056034;28;20206;-64
2022/09/08 05:36:32;;;;;;;14.33;13.03;;;20.30;76.50;;;23.04;56.52;100751.53;5056335;28;20628;-63
2022/09/08 05:39:01;;;;;;;15.70;14.20;;;20.30;77.40;;;23.05;56.58;100747.78;5056049;28;20189;-64
2022/09/08 05:41:32;;;;;;;14.40;13.10;;;20.30;76.60;;;23.06;56.44;100752.09;5054986;28;20197;-65
2022/09/08 05:44:00;;;;;;;13.43;12.33;;;20.30;76.50;;;23.05;56.50;100748.59;5055696;28;20237;-63
2022/09/08 05:46:28;;;;;;;13.97;12.77;;;20.30;76.60;;;23.07;56.68;100745.66;5055955;28;20190;-64
2022/09/08 05:48:57;;;;;;;14.40;13.20;;;20.30;76.50;;;23.07;56.18;100742.97;5056133;28;20650;-63
2022/09/08 05:51:26;;;;;;;13.63;12.43;;;20.30;76.40;;;23.05;56.16;100742.41;5055338;28;20224;-63
2022/09/08 05:53:58;;;;;;;13.90;12.60;;;20.30;76.30;;;23.05;55.94;100758.53;5056143;28;20668;-63
2022/09/08 05:56:25;;;;;;;14.63;13.33;;;20.30;76.30;;;23.02;56.34;100748.28;5056212;28;20186;-62
2022/09/08 05:59:00;;;;;;;14.30;13.00;;;20.30;76.30;;;23.03;56.42;100739.19;5056343;28;20182;-64
2022/09/08 06:01:31;;;;;;;13.23;11.57;;;20.30;76.50;;;23.05;56.35;100737.03;5070599;28;20197;-64
2022/09/08 06:03:59;;;;;;;14.17;12.87;;;20.30;76.50;;;23.09;56.12;100730.09;5055683;28;20270;-64
2022/09/08 06:06:27;;;;;;;14.90;13.40;;;20.40;76.40;;;23.13;56.31;100736.59;5070634;28;20655;-63
2022/09/08 06:08:56;;;;;;;14.97;13.67;;;20.40;76.50;;;23.18;56.27;100736.59;5055143;28;20256;-63
2022/09/08 06:11:24;;;;;;;12.83;11.80;;;20.40;76.40;;;23.20;56.10;100740.66;5055176;28;20640;-63
2022/09/08 06:13:52;;;;;;;14.33;13.03;;;20.40;77.00;;;23.24;55.88;100735.59;5055436;28;20250;-62
2022/09/08 06:16:22;;;;;;;15.07;13.57;;;20.50;76.10;;;23.26;55.33;100734.25;5055455;28;20194;-62
2022/09/08 06:18:50;;;;;;;15.90;14.50;;;20.50;76.70;;;23.27;55.75;100717.06;5055720;28;20240;-63
2022/09/08 06:21:24;;;;;;;22.17;20.03;;;20.50;75.80;;;23.28;55.77;100723.25;5055527;28;20647;-64
2022/09/08 06:23:55;;;;;;;17.50;15.70;;;20.50;75.80;;;23.29;55.76;100722.19;5054743;28;20212;-62
2022/09/08 06:26:52;;;;;;;13.93;12.77;;;20.50;75.80;;;23.23;55.30;100717.84;5054755;28;20190;-61
2022/09/08 06:29:36;;;;;;;14.57;13.33;;;20.50;75.60;;;23.25;55.51;100715.72;5055714;28;20189;-63
2022/09/08 06:32:22;;;;;;;14.77;13.37;;;20.50;75.50;;;23.23;55.71;100710.59;5072666;28;20605;-61
2022/09/08 06:34:55;;;;;;;13.30;12.20;;;20.50;75.50;;;23.27;55.59;100708.22;5076113;28;20229;-62
2022/09/08 06:37:32;;;;;;;14.60;13.30;;;20.50;75.60;;;23.29;55.50;100700.69;5075854;28;20243;-63
2022/09/08 06:40:10;;;;;;;14.27;12.77;;;20.50;75.90;;;23.33;55.64;100699.91;5076032;28;20537;-65
2022/09/08 06:42:47;;;;;;;13.90;12.60;;;20.50;75.80;;;23.36;55.21;100706.69;5076161;28;20223;-62
2022/09/08 06:45:23;;;;;;;14.10;12.87;;;20.60;75.50;;;23.36;55.46;100712.06;5075495;28;20189;-62
2022/09/08 06:48:21;;;;;;;13.07;11.87;;;20.60;75.40;;;23.31;55.30;100710.13;5077864;28;20625;-63
2022/09/08 06:51:12;;;;;;;13.90;12.63;;;20.60;75.30;;;23.32;55.10;100721.69;5076507;28;20661;-62
2022/09/08 06:53:47;;;;;;;16.07;14.37;;;20.60;75.20;;;23.34;55.39;100724.91;5065877;28;20217;-64
2022/09/08 06:56:31;;;;;;;14.90;13.57;;;20.60;75.20;;;23.32;55.13;100721.69;5055053;28;20272;-63
2022/09/08 06:59:36;;;;;;;13.40;12.30;;;20.60;75.10;;;23.30;55.36;100713.84;5054732;28;20239;-62
2022/09/08 07:02:42;;;;;;;15.40;13.17;;;20.50;75.10;;;23.28;55.05;100707.13;5054426;28;20259;-64
2022/09/08 07:05:44;;;;;;;13.07;12.03;;;20.60;75.20;;;23.27;55.14;100702.84;5054740;28;20587;-63
2022/09/08 07:08:40;;;;;;;13.73;12.43;;;20.60;75.20;;;23.33;55.26;100699.09;5054835;28;20642;-63
2022/09/08 07:11:25;;;;;;;13.27;12.17;;;20.60;75.30;;;23.38;55.27;100702.66;5045551;28;20558;-63
2022/09/08 07:14:06;;;;;;;14.43;13.03;;;20.60;75.20;;;23.42;54.90;100697.56;5055308;28;20197;-63
2022/09/08 07:16:41;;;;;;;13.50;12.30;;;20.60;75.00;;;23.43;54.78;100694.63;5054007;28;20182;-62
2022/09/08 07:19:17;;;;;;;13.13;11.63;;;20.70;74.80;;;23.46;54.89;100701.38;5054160;28;20178;-63
2022/09/08 07:22:05;;;;;;;13.40;12.10;;;20.60;74.70;;;23.46;54.63;100696.78;5053941;28;20239;-63
2022/09/08 07:24:38;;;;;;;14.23;12.80;;;20.70;74.80;;;23.47;54.89;100702.97;5054345;28;20186;-62
2022/09/08 07:27:10;;;;;;;14.40;13.20;;;20.70;74.50;;;23.45;54.43;100705.94;5055862;28;20243;-62
2022/09/08 07:29:44;;;;;;;13.43;12.10;;;20.70;74.40;;;23.45;54.60;100700.56;5054413;28;20197;-63
2022/09/08 07:32:18;;;;;;;13.07;11.87;;;20.70;75.20;;;23.46;54.73;100690.63;5054217;28;20205;-64
2022/09/08 07:34:52;;;;;;;16.23;14.37;;;20.70;74.40;;;23.47;54.58;100694.91;5054141;28;20197;-61
2022/09/08 07:37:27;;;;;;;15.33;13.83;;;20.70;74.30;;;23.45;54.43;100689.00;5054295;28;20197;-62
2022/09/08 07:40:04;;;;;;;14.87;13.37;;;20.70;74.20;;;23.45;54.61;100678.25;5052968;28;20192;-63
2022/09/08 07:42:33;;;;;;;16.27;14.93;;;20.70;74.30;;;23.47;54.75;100671.53;5053347;28;20205;-62
2022/09/08 07:45:06;;;;;;;19.63;17.83;;;20.70;74.20;;;23.50;54.52;100670.22;5053556;28;20259;-63
2022/09/08 07:47:50;;;;;;;15.30;13.80;;;20.80;74.40;;;23.51;54.63;100663.75;5053508;28;20209;-64
2022/09/08 07:50:53;;;;;;;14.57;13.27;;;20.80;74.50;;;23.55;54.29;100672.94;5053408;28;20623;-62
2022/09/08 07:53:48;;;;;;;14.70;13.43;;;20.80;74.20;;;23.52;54.40;100670.75;5053274;28;20267;-63
2022/09/08 07:56:22;;;;;;;12.97;11.87;;;20.80;74.20;;;23.59;54.50;100665.94;5053799;28;20227;-62
2022/09/08 07:59:35;;;;;;;14.03;12.83;;;20.80;74.30;;;23.61;54.59;100661.13;5053496;28;20228;-62
2022/09/08 08:03:14;;;;;;;13.87;12.43;;;20.80;74.30;;;23.61;54.36;100666.50;5111291;27;20606;-64
2022/09/08 08:06:33;;;;;;;13.20;12.00;;;20.80;74.30;;;23.70;54.24;100659.53;5091023;28;20230;-66
2022/09/08 08:09:19;;;;;;;15.57;14.17;;;20.90;74.30;;;23.73;54.47;100668.97;5083557;28;20269;-62
2022/09/08 08:12:20;;;;;;;15.80;14.33;;;20.90;74.00;;;23.67;54.12;100670.84;5090091;28;20261;-65
2022/09/08 08:15:18;;;;;;;23.10;21.00;;;21.00;73.80;;;23.62;54.54;100672.69;5088933;28;20216;-64
2022/09/08 08:18:01;;;;;;;17.77;16.00;;;20.90;73.90;;;23.53;54.48;100680.44;5087986;28;20192;-65
2022/09/08 08:20:43;;;;;;;16.80;15.30;;;20.90;73.80;;;23.45;54.62;100680.94;5086785;28;20692;-64
2022/09/08 08:24:00;;;;;;;16.40;14.80;;;20.90;74.10;;;23.36;55.24;100683.31;5086445;28;20248;-64
2022/09/08 08:26:58;;;;;;;15.67;14.30;;;20.80;74.40;;;23.39;55.25;100680.09;5086409;28;20603;-65
2022/09/08 08:30:03;;;;;;;14.77;13.47;;;20.80;74.70;;;23.41;55.34;100687.91;5088154;28;20215;-65
2022/09/08 08:32:38;;;;;;;14.87;12.90;;;20.80;74.80;;;23.46;55.06;100672.59;5083208;28;20239;-65
2022/09/08 08:35:19;;;;;;;13.50;12.20;;;20.80;74.90;;;23.50;54.97;100680.97;5085668;28;20195;-64
2022/09/08 08:37:52;;;;;;;13.30;12.00;;;20.80;74.80;;;23.56;54.97;100690.66;5085346;28;20239;-64
2022/09/08 08:40:35;;;;;;;22.87;20.43;;;20.90;74.80;;;23.56;54.88;100693.34;5083451;28;20277;-64
2022/09/08 08:43:44;;;;;;;16.37;14.70;;;20.90;74.60;;;23.54;54.76;100690.13;5084985;28;20223;-65
2022/09/08 08:47:03;;;;;;;15.30;13.83;;;21.00;74.50;;;23.55;54.64;100700.63;5083324;28;20219;-64
2022/09/08 08:50:15;;;;;;;15.57;13.90;;;21.00;74.10;;;23.55;54.85;100715.94;5041343;28;20303;-64
2022/09/08 08:53:08;;;;;;;19.07;16.17;;;21.00;74.40;;;23.57;54.58;100724.53;5083124;28;20228;-64
2022/09/08 08:55:52;;;;;;;16.97;15.37;;;20.90;73.60;;;23.57;54.91;100735.28;5087672;28;20239;-64
2022/09/08 08:58:51;;;;;;;15.83;14.33;;;20.80;74.30;;;23.43;54.93;100736.81;5085213;28;20288;-63
2022/09/08 09:01:51;;;;;;;17.27;15.77;;;20.80;74.50;;;23.22;55.82;100724.28;5085304;28;20282;-63
2022/09/08 09:04:57;;;;;;;16.73;14.97;;;20.70;75.60;;;23.18;56.30;100715.09;5086439;28;20228;-64
2022/09/08 09:07:59;;;;;;;16.07;14.50;;;20.70;75.60;;;23.26;56.05;100738.81;5085428;28;20197;-63
2022/09/08 09:10:59;;;;;;;19.97;18.07;;;20.70;76.00;;;23.27;56.46;100721.63;5087327;28;20204;-64
2022/09/08 09:14:06;;;;;;;19.20;17.23;;;20.70;76.30;;;23.34;56.90;100724.91;5074141;28;20253;-63
2022/09/08 09:17:02;;;;;;;17.20;15.67;;;20.70;77.00;;;23.47;56.58;100713.72;5070016;28;20204;-65
2022/09/08 09:20:11;;;;;;;20.27;18.20;;;20.80;77.20;;;23.53;57.00;100712.69;5070113;28;20526;-64
2022/09/08 09:22:53;;;;;;;17.73;15.17;;;20.80;77.60;;;23.58;57.37;100726.19;5061874;28;20312;-64
2022/09/08 09:25:32;;;;;;;17.23;15.63;;;20.90;78.00;;;23.55;57.45;100710.56;5056464;28;20188;-63
2022/09/08 09:28:39;;;;;;;19.03;17.33;;;20.90;78.20;;;23.48;57.43;100716.19;5072066;28;20250;-66
2022/09/08 09:32:05;;;;;;;18.10;16.33;;;20.90;78.00;;;23.41;57.63;100720.16;5069585;28;20646;-63
2022/09/08 09:35:22;;;;;;;21.17;19.27;;;20.80;78.00;;;23.27;57.24;100717.06;5069281;28;20197;-62
2022/09/08 09:39:20;;;;;;;18.37;16.53;;;20.80;77.20;;;23.17;57.20;100719.69;5070298;28;20268;-64
2022/09/08 09:42:29;;;;;;;16.83;15.13;;;20.70;77.10;;;23.14;58.02;100705.94;5068314;28;20237;-64
2022/09/08 09:45:29;;;;;;;18.63;16.83;;;20.70;78.20;;;22.98;58.21;100704.22;5064006;28;20212;-64
2022/09/08 09:48:29;;;;;;;19.23;17.33;;;20.60;77.50;;;22.97;58.31;100699.91;5071728;28;20246;-63
2022/09/08 09:51:29;;;;;;;20.33;18.30;;;20.60;77.50;;;22.88;58.39;100711.13;5068551;28;20261;-63
2022/09/08 09:54:18;;;;;;;19.73;17.93;;;20.50;78.30;;;22.84;58.77;100710.00;5072812;28;20225;-64
2022/09/08 09:57:50;;;;;;;22.83;20.60;;;20.50;78.80;;;22.79;59.34;100707.31;5072767;28;20193;-63
2022/09/08 10:00:19;;;;;;;19.97;18.07;;;20.40;79.70;;;22.75;59.36;100710.72;5068168;28;20250;-63
2022/09/08 10:03:39;;;;;;;20.50;18.43;;;20.30;79.20;;;22.53;59.86;100705.44;5066993;28;20209;-63
2022/09/08 10:06:30;;;;;;;19.63;17.83;;;20.30;79.50;;;22.53;59.80;100708.13;5069971;28;20287;-61
2022/09/08 10:09:51;;;;;;;19.63;17.77;;;20.20;79.70;;;22.51;59.81;100710.22;5070641;28;20649;-61
2022/09/08 10:13:09;;;;;;;27.80;25.10;;;20.20;80.00;;;22.53;60.73;100713.47;5068911;28;20241;-61
2022/09/08 10:16:38;;;;;;;20.30;18.60;;;20.10;81.00;;;22.65;60.07;100716.03;5065829;28;20296;-63
2022/09/08 10:19:58;;;;;;;24.07;21.87;;;20.20;81.10;;;22.76;60.08;100721.22;5053495;28;20240;-64
2022/09/08 10:22:53;;;;;;;20.27;18.30;;;20.30;81.10;;;22.92;60.10;100718.69;5069684;28;20229;-63
2022/09/08 10:26:35;;;;;;;19.83;18.17;;;20.40;81.20;;;23.07;59.48;100718.78;5069405;28;20198;-62
2022/09/08 10:29:59;;;;;;;17.63;15.83;;;20.40;80.80;;;23.21;59.05;100706.53;5055714;28;20693;-62
2022/09/08 10:33:10;;;;;;;23.20;20.97;;;20.50;80.50;;;23.31;58.88;100709.31;5041081;28;20732;-62
2022/09/08 10:35:43;;;;;;;19.70;17.97;;;20.60;80.70;;;23.47;58.80;100713.72;5060725;28;20679;-62
2022/09/08 10:38:48;;;;;;;19.00;17.40;;;20.70;80.60;;;23.50;58.59;100713.22;5068832;28;20216;-63
2022/09/08 10:42:17;;;;;;;21.20;19.30;;;20.70;80.70;;;23.49;59.16;100720.47;5045818;28;20232;-63
2022/09/08 10:45:17;;;;;;;20.93;18.80;;;20.80;81.10;;;23.53;58.93;100718.88;5069208;28;20245;-62
2022/09/08 10:48:28;;;;;;;69.77;62.73;;;20.80;81.10;;;23.55;59.12;100715.94;5070314;28;20201;-63
2022/09/08 10:51:29;;;;;;;26.53;24.03;;;20.80;81.00;;;23.65;59.38;100715.19;5065686;28;20212;-63
2022/09/08 10:54:34;;;;;;;20.17;18.37;;;20.80;81.50;;;23.77;58.70;100713.09;5066659;28;20216;-63
2022/09/08 10:57:20;;;;;;;40.30;36.33;;;20.90;81.20;;;23.85;58.37;100716.06;5068182;28;20201;-64